sensor_id;sensor_type;location;lat;lon;timestamp;temperature;humidity
11035;DHT22;5571;48.110;-1.706;2023-02-15T00:00:20;8.20;99.90
11035;DHT22;5571;48.110;-1.706;2023-02-15T00:02:45;8.20;99.90
11035;DHT22;5571;48.110;-1.706;2023-02-15T00:05:11;8.10;99.90
11035;DHT22;5571;48.110;-1.706;2023-02-15T00:07:36;8.20;99.90
11035;DHT22;5571;48.110;-1.706;2023-02-15T00:10:02;8.10;99.90
11035;DHT22;5571;48.110;-1.706;2023-02-15T00:12:28;8.10;99.90
11035;DHT22;5571;48.110;-1.706;2023-02-15T00:14:54;8.10;99.90
11035;DHT22;5571;48.110;-1.706;2023-02-15T00:17:20;8.10;99.90
11035;DHT22;5571;48.110;-1.706;2023-02-15T00:19:46;8.10;99.90
11035;DHT22;5571;48.110;-1.706;2023-02-15T00:22:12;8.10;99.90
11035;DHT22;5571;48.110;-1.706;2023-02-15T00:24:38;8.10;99.90
11035;DHT22;5571;48.110;-1.706;2023-02-15T00:27:03;8.10;99.90
11035;DHT22;5571;48.110;-1.706;2023-02-15T00:29:29;8.10;99.90
11035;DHT22;5571;48.110;-1.706;2023-02-15T00:31:55;8.10;99.90
11035;DHT22;5571;48.110;-1.706;2023-02-15T00:34:26;8.20;99.90
11035;DHT22;5571;48.110;-1.706;2023-02-15T00:36:52;8.10;99.90
11035;DHT22;5571;48.110;-1.706;2023-02-15T00:39:18;8.10;99.90
11035;DHT22;5571;48.110;-1.706;2023-02-15T00:41:45;8.10;99.90
11035;DHT22;5571;48.110;-1.706;2023-02-15T00:44:12;8.00;99.90
11035;DHT22;5571;48.110;-1.706;2023-02-15T00:46:38;8.10;99.90
11035;DHT22;5571;48.110;-1.706;2023-02-15T00:49:04;8.10;99.90
11035;DHT22;5571;48.110;-1.706;2023-02-15T00:51:29;8.10;99.90
11035;DHT22;5571;48.110;-1.706;2023-02-15T00:53:55;8.10;99.90
11035;DHT22;5571;48.110;-1.706;2023-02-15T00:56:21;8.10;99.90
11035;DHT22;5571;48.110;-1.706;2023-02-15T00:58:47;8.10;99.90
11035;DHT22;5571;48.110;-1.706;2023-02-15T01:01:15;8.10;99.90
11035;DHT22;5571;48.110;-1.706;2023-02-15T01:03:41;8.10;99.90
11035;DHT22;5571;48.110;-1.706;2023-02-15T01:06:08;8.10;99.90
11035;DHT22;5571;48.110;-1.706;2023-02-15T01:08:34;8.10;99.90
11035;DHT22;5571;48.110;-1.706;2023-02-15T01:11:12;8.10;99.90
11035;DHT22;5571;48.110;-1.706;2023-02-15T01:13:39;8.10;99.90
11035;DHT22;5571;48.110;-1.706;2023-02-15T01:16:05;8.10;99.90
11035;DHT22;5571;48.110;-1.706;2023-02-15T01:18:31;8.00;99.90
11035;DHT22;5571;48.110;-1.706;2023-02-15T01:20:57;8.00;99.90
11035;DHT22;5571;48.110;-1.706;2023-02-15T01:23:23;8.00;99.90
11035;DHT22;5571;48.110;-1.706;2023-02-15T01:25:48;8.00;99.90
11035;DHT22;5571;48.110;-1.706;2023-02-15T01:28:14;7.90;99.90
11035;DHT22;5571;48.110;-1.706;2023-02-15T01:30:41;8.00;99.90
11035;DHT22;5571;48.110;-1.706;2023-02-15T01:33:06;7.90;99.90
11035;DHT22;5571;48.110;-1.706;2023-02-15T01:35:32;7.80;99.90
11035;DHT22;5571;48.110;-1.706;2023-02-15T01:37:58;7.80;99.90
11035;DHT22;5571;48.110;-1.706;2023-02-15T01:40:24;7.70;99.90
11035;DHT22;5571;48.110;-1.706;2023-02-15T01:42:51;7.70;99.90
11035;DHT22;5571;48.110;-1.706;2023-02-15T01:56:01;7.80;99.90
11035;DHT22;5571;48.110;-1.706;2023-02-15T01:58:28;7.80;99.90
11035;DHT22;5571;48.110;-1.706;2023-02-15T02:00:56;7.80;99.90
11035;DHT22;5571;48.110;-1.706;2023-02-15T02:06:20;7.70;99.90
11035;DHT22;5571;48.110;-1.706;2023-02-15T02:08:46;7.80;99.90
11035;DHT22;5571;48.110;-1.706;2023-02-15T02:11:13;7.80;99.90
11035;DHT22;5571;48.110;-1.706;2023-02-15T02:13:43;7.80;99.90
11035;DHT22;5571;48.110;-1.706;2023-02-15T02:21:34;7.70;99.90
11035;DHT22;5571;48.110;-1.706;2023-02-15T02:27:09;7.70;99.90
11035;DHT22;5571;48.110;-1.706;2023-02-15T02:38:48;7.60;99.90
11035;DHT22;5571;48.110;-1.706;2023-02-15T02:41:31;7.70;99.90
11035;DHT22;5571;48.110;-1.706;2023-02-15T02:44:19;7.70;99.90
11035;DHT22;5571;48.110;-1.706;2023-02-15T02:47:06;7.70;99.90
11035;DHT22;5571;48.110;-1.706;2023-02-15T02:49:43;7.70;99.90
11035;DHT22;5571;48.110;-1.706;2023-02-15T02:52:34;7.70;99.90
11035;DHT22;5571;48.110;-1.706;2023-02-15T02:55:02;7.70;99.90
11035;DHT22;5571;48.110;-1.706;2023-02-15T02:57:29;7.70;99.90
11035;DHT22;5571;48.110;-1.706;2023-02-15T02:59:59;7.70;99.90
11035;DHT22;5571;48.110;-1.706;2023-02-15T03:02:32;7.60;99.90
11035;DHT22;5571;48.110;-1.706;2023-02-15T03:05:03;7.60;99.90
11035;DHT22;5571;48.110;-1.706;2023-02-15T03:07:32;7.50;99.90
11035;DHT22;5571;48.110;-1.706;2023-02-15T03:10:00;7.50;99.90
11035;DHT22;5571;48.110;-1.706;2023-02-15T03:12:37;7.50;99.90
11035;DHT22;5571;48.110;-1.706;2023-02-15T03:15:06;7.40;99.90
11035;DHT22;5571;48.110;-1.706;2023-02-15T03:17:36;7.40;99.90
11035;DHT22;5571;48.110;-1.706;2023-02-15T03:20:10;7.40;99.90
11035;DHT22;5571;48.110;-1.706;2023-02-15T03:22:44;7.40;99.90
11035;DHT22;5571;48.110;-1.706;2023-02-15T03:25:21;7.40;99.90
11035;DHT22;5571;48.110;-1.706;2023-02-15T03:27:52;7.40;99.90
11035;DHT22;5571;48.110;-1.706;2023-02-15T03:30:21;7.40;99.90
11035;DHT22;5571;48.110;-1.706;2023-02-15T03:32:48;7.40;99.90
11035;DHT22;5571;48.110;-1.706;2023-02-15T03:35:15;7.30;99.90
11035;DHT22;5571;48.110;-1.706;2023-02-15T03:37:46;7.40;99.90
11035;DHT22;5571;48.110;-1.706;2023-02-15T03:40:18;7.40;99.90
11035;DHT22;5571;48.110;-1.706;2023-02-15T03:43:35;7.40;99.90
11035;DHT22;5571;48.110;-1.706;2023-02-15T03:46:17;7.40;99.90
11035;DHT22;5571;48.110;-1.706;2023-02-15T03:49:48;7.40;99.90
11035;DHT22;5571;48.110;-1.706;2023-02-15T03:51:43;7.40;99.90
11035;DHT22;5571;48.110;-1.706;2023-02-15T03:54:26;7.40;99.90
11035;DHT22;5571;48.110;-1.706;2023-02-15T03:57:20;7.40;99.90
11035;DHT22;5571;48.110;-1.706;2023-02-15T04:00:19;7.30;99.90
11035;DHT22;5571;48.110;-1.706;2023-02-15T04:03:09;7.30;99.90
11035;DHT22;5571;48.110;-1.706;2023-02-15T04:05:37;7.30;99.90
11035;DHT22;5571;48.110;-1.706;2023-02-15T04:08:03;7.30;99.90
11035;DHT22;5571;48.110;-1.706;2023-02-15T04:10:29;7.20;99.90
11035;DHT22;5571;48.110;-1.706;2023-02-15T04:13:13;7.20;99.90
11035;DHT22;5571;48.110;-1.706;2023-02-15T04:15:39;7.10;99.90
11035;DHT22;5571;48.110;-1.706;2023-02-15T04:18:23;7.10;99.90
11035;DHT22;5571;48.110;-1.706;2023-02-15T04:21:07;7.10;99.90
11035;DHT22;5571;48.110;-1.706;2023-02-15T04:23:51;7.10;99.90
11035;DHT22;5571;48.110;-1.706;2023-02-15T04:26:36;7.00;99.90
11035;DHT22;5571;48.110;-1.706;2023-02-15T04:29:01;7.00;99.90
11035;DHT22;5571;48.110;-1.706;2023-02-15T04:31:27;7.00;99.90
11035;DHT22;5571;48.110;-1.706;2023-02-15T04:33:53;7.00;99.90
11035;DHT22;5571;48.110;-1.706;2023-02-15T04:36:18;7.00;99.90
11035;DHT22;5571;48.110;-1.706;2023-02-15T04:38:44;7.00;99.90
11035;DHT22;5571;48.110;-1.706;2023-02-15T04:41:09;7.00;99.90
11035;DHT22;5571;48.110;-1.706;2023-02-15T04:43:37;7.00;99.90
11035;DHT22;5571;48.110;-1.706;2023-02-15T04:46:03;7.00;99.90
11035;DHT22;5571;48.110;-1.706;2023-02-15T04:48:29;7.00;99.90
11035;DHT22;5571;48.110;-1.706;2023-02-15T04:50:54;7.00;99.90
11035;DHT22;5571;48.110;-1.706;2023-02-15T04:53:20;7.10;99.90
11035;DHT22;5571;48.110;-1.706;2023-02-15T04:55:46;7.10;99.90
11035;DHT22;5571;48.110;-1.706;2023-02-15T04:58:11;7.10;99.90
11035;DHT22;5571;48.110;-1.706;2023-02-15T05:00:37;7.10;99.90
11035;DHT22;5571;48.110;-1.706;2023-02-15T05:03:03;7.10;99.90
11035;DHT22;5571;48.110;-1.706;2023-02-15T05:05:28;7.00;99.90
11035;DHT22;5571;48.110;-1.706;2023-02-15T05:07:54;7.00;99.90
11035;DHT22;5571;48.110;-1.706;2023-02-15T05:10:20;7.00;99.90
11035;DHT22;5571;48.110;-1.706;2023-02-15T05:12:45;6.90;99.90
11035;DHT22;5571;48.110;-1.706;2023-02-15T05:15:11;6.90;99.90
11035;DHT22;5571;48.110;-1.706;2023-02-15T05:17:37;6.90;99.90
11035;DHT22;5571;48.110;-1.706;2023-02-15T05:20:03;6.90;99.90
11035;DHT22;5571;48.110;-1.706;2023-02-15T05:22:29;6.90;99.90
11035;DHT22;5571;48.110;-1.706;2023-02-15T05:24:54;6.80;99.90
11035;DHT22;5571;48.110;-1.706;2023-02-15T05:27:49;6.80;99.90
11035;DHT22;5571;48.110;-1.706;2023-02-15T05:30:33;6.80;99.90
11035;DHT22;5571;48.110;-1.706;2023-02-15T05:32:59;6.80;99.90
11035;DHT22;5571;48.110;-1.706;2023-02-15T05:35:25;6.90;99.90
11035;DHT22;5571;48.110;-1.706;2023-02-15T05:37:50;6.80;99.90
11035;DHT22;5571;48.110;-1.706;2023-02-15T05:40:16;6.80;99.90
11035;DHT22;5571;48.110;-1.706;2023-02-15T05:42:42;6.90;99.90
11035;DHT22;5571;48.110;-1.706;2023-02-15T05:45:07;6.90;99.90
11035;DHT22;5571;48.110;-1.706;2023-02-15T05:47:33;6.90;99.90
11035;DHT22;5571;48.110;-1.706;2023-02-15T05:49:59;6.90;99.90
11035;DHT22;5571;48.110;-1.706;2023-02-15T05:52:25;7.00;99.90
11035;DHT22;5571;48.110;-1.706;2023-02-15T05:54:50;7.00;99.90
11035;DHT22;5571;48.110;-1.706;2023-02-15T05:57:16;7.00;99.90
11035;DHT22;5571;48.110;-1.706;2023-02-15T05:59:42;7.00;99.90
11035;DHT22;5571;48.110;-1.706;2023-02-15T06:02:07;7.00;99.90
11035;DHT22;5571;48.110;-1.706;2023-02-15T06:04:33;7.00;99.90
11035;DHT22;5571;48.110;-1.706;2023-02-15T06:06:58;7.00;99.90
11035;DHT22;5571;48.110;-1.706;2023-02-15T06:09:24;7.00;99.90
11035;DHT22;5571;48.110;-1.706;2023-02-15T06:11:50;7.00;99.90
11035;DHT22;5571;48.110;-1.706;2023-02-15T06:14:15;7.00;99.90
11035;DHT22;5571;48.110;-1.706;2023-02-15T06:16:41;7.00;99.90
11035;DHT22;5571;48.110;-1.706;2023-02-15T06:19:07;7.10;99.90
11035;DHT22;5571;48.110;-1.706;2023-02-15T06:21:32;7.10;99.90
11035;DHT22;5571;48.110;-1.706;2023-02-15T06:23:58;7.20;99.90
11035;DHT22;5571;48.110;-1.706;2023-02-15T06:26:24;7.30;99.90
11035;DHT22;5571;48.110;-1.706;2023-02-15T06:28:49;7.30;99.90
11035;DHT22;5571;48.110;-1.706;2023-02-15T06:31:15;7.40;99.90
11035;DHT22;5571;48.110;-1.706;2023-02-15T06:33:40;7.30;99.90
11035;DHT22;5571;48.110;-1.706;2023-02-15T06:36:06;7.30;99.90
11035;DHT22;5571;48.110;-1.706;2023-02-15T06:38:32;7.20;99.90
11035;DHT22;5571;48.110;-1.706;2023-02-15T06:40:58;7.10;99.90
11035;DHT22;5571;48.110;-1.706;2023-02-15T06:43:23;7.00;99.90
11035;DHT22;5571;48.110;-1.706;2023-02-15T06:45:49;6.90;99.90
11035;DHT22;5571;48.110;-1.706;2023-02-15T06:48:15;6.90;99.90
11035;DHT22;5571;48.110;-1.706;2023-02-15T06:50:40;6.90;99.90
11035;DHT22;5571;48.110;-1.706;2023-02-15T06:53:06;6.80;99.90
11035;DHT22;5571;48.110;-1.706;2023-02-15T06:55:32;6.80;99.90
11035;DHT22;5571;48.110;-1.706;2023-02-15T06:57:57;6.70;99.90
11035;DHT22;5571;48.110;-1.706;2023-02-15T07:00:23;6.70;99.90
11035;DHT22;5571;48.110;-1.706;2023-02-15T07:02:58;6.70;99.90
11035;DHT22;5571;48.110;-1.706;2023-02-15T07:05:25;6.60;99.90
11035;DHT22;5571;48.110;-1.706;2023-02-15T07:07:56;6.60;99.90
11035;DHT22;5571;48.110;-1.706;2023-02-15T07:10:22;6.70;99.90
11035;DHT22;5571;48.110;-1.706;2023-02-15T07:12:47;6.70;99.90
11035;DHT22;5571;48.110;-1.706;2023-02-15T07:15:16;6.60;99.90
11035;DHT22;5571;48.110;-1.706;2023-02-15T07:17:42;6.60;99.90
11035;DHT22;5571;48.110;-1.706;2023-02-15T07:20:24;6.60;99.90
11035;DHT22;5571;48.110;-1.706;2023-02-15T07:22:50;6.50;99.90
11035;DHT22;5571;48.110;-1.706;2023-02-15T07:25:16;6.50;99.90
11035;DHT22;5571;48.110;-1.706;2023-02-15T07:27:42;6.40;99.90
11035;DHT22;5571;48.110;-1.706;2023-02-15T07:30:12;6.40;99.90
11035;DHT22;5571;48.110;-1.706;2023-02-15T07:32:38;6.40;99.90
11035;DHT22;5571;48.110;-1.706;2023-02-15T07:35:23;6.40;99.90
11035;DHT22;5571;48.110;-1.706;2023-02-15T07:37:49;6.40;99.90
11035;DHT22;5571;48.110;-1.706;2023-02-15T07:40:15;6.40;99.90
11035;DHT22;5571;48.110;-1.706;2023-02-15T07:42:41;6.50;99.90
11035;DHT22;5571;48.110;-1.706;2023-02-15T07:45:07;6.50;99.90
11035;DHT22;5571;48.110;-1.706;2023-02-15T07:47:33;6.50;99.90
11035;DHT22;5571;48.110;-1.706;2023-02-15T07:49:58;6.60;99.90
11035;DHT22;5571;48.110;-1.706;2023-02-15T07:52:25;6.60;99.90
11035;DHT22;5571;48.110;-1.706;2023-02-15T07:54:51;6.60;99.90
11035;DHT22;5571;48.110;-1.706;2023-02-15T07:57:16;6.50;99.90
11035;DHT22;5571;48.110;-1.706;2023-02-15T07:59:42;6.50;99.90
11035;DHT22;5571;48.110;-1.706;2023-02-15T08:02:11;6.60;99.90
11035;DHT22;5571;48.110;-1.706;2023-02-15T08:04:36;6.60;99.90
11035;DHT22;5571;48.110;-1.706;2023-02-15T08:07:02;6.60;99.90
11035;DHT22;5571;48.110;-1.706;2023-02-15T08:09:28;6.60;99.90
11035;DHT22;5571;48.110;-1.706;2023-02-15T08:11:53;6.60;99.90
11035;DHT22;5571;48.110;-1.706;2023-02-15T08:14:21;6.60;99.90
11035;DHT22;5571;48.110;-1.706;2023-02-15T08:16:49;6.70;99.90
11035;DHT22;5571;48.110;-1.706;2023-02-15T08:21:54;6.70;99.90
11035;DHT22;5571;48.110;-1.706;2023-02-15T08:24:23;6.80;99.90
11035;DHT22;5571;48.110;-1.706;2023-02-15T08:26:50;6.80;99.90
11035;DHT22;5571;48.110;-1.706;2023-02-15T08:29:22;6.80;99.90
11035;DHT22;5571;48.110;-1.706;2023-02-15T08:31:49;6.80;99.90
11035;DHT22;5571;48.110;-1.706;2023-02-15T08:34:17;6.90;99.90
11035;DHT22;5571;48.110;-1.706;2023-02-15T08:36:43;6.90;99.90
11035;DHT22;5571;48.110;-1.706;2023-02-15T08:39:13;7.00;99.90
11035;DHT22;5571;48.110;-1.706;2023-02-15T08:41:42;7.10;99.90
11035;DHT22;5571;48.110;-1.706;2023-02-15T08:44:08;7.20;99.90
11035;DHT22;5571;48.110;-1.706;2023-02-15T08:46:37;7.30;99.90
11035;DHT22;5571;48.110;-1.706;2023-02-15T08:49:03;7.40;99.90
11035;DHT22;5571;48.110;-1.706;2023-02-15T08:51:32;7.50;99.90
11035;DHT22;5571;48.110;-1.706;2023-02-15T08:54:02;7.60;99.90
11035;DHT22;5571;48.110;-1.706;2023-02-15T08:56:31;7.70;99.90
11035;DHT22;5571;48.110;-1.706;2023-02-15T08:58:57;7.70;99.90
11035;DHT22;5571;48.110;-1.706;2023-02-15T09:01:28;7.80;99.90
11035;DHT22;5571;48.110;-1.706;2023-02-15T09:03:56;7.90;99.90
11035;DHT22;5571;48.110;-1.706;2023-02-15T09:06:23;7.90;99.90
11035;DHT22;5571;48.110;-1.706;2023-02-15T09:08:50;8.00;99.90
11035;DHT22;5571;48.110;-1.706;2023-02-15T09:13:56;8.00;99.90
11035;DHT22;5571;48.110;-1.706;2023-02-15T09:16:23;8.00;99.90
11035;DHT22;5571;48.110;-1.706;2023-02-15T09:18:50;8.00;99.90
11035;DHT22;5571;48.110;-1.706;2023-02-15T09:21:18;8.00;99.90
11035;DHT22;5571;48.110;-1.706;2023-02-15T09:23:46;8.10;99.90
11035;DHT22;5571;48.110;-1.706;2023-02-15T09:26:15;8.20;99.90
11035;DHT22;5571;48.110;-1.706;2023-02-15T09:28:40;8.20;99.90
11035;DHT22;5571;48.110;-1.706;2023-02-15T09:31:13;8.30;99.90
11035;DHT22;5571;48.110;-1.706;2023-02-15T09:33:41;8.50;99.90
11035;DHT22;5571;48.110;-1.706;2023-02-15T09:36:40;8.60;99.90
11035;DHT22;5571;48.110;-1.706;2023-02-15T09:39:12;8.80;99.90
11035;DHT22;5571;48.110;-1.706;2023-02-15T09:47:28;9.20;99.90
11035;DHT22;5571;48.110;-1.706;2023-02-15T09:58:45;9.10;99.90
11035;DHT22;5571;48.110;-1.706;2023-02-15T10:27:48;10.50;99.90
11035;DHT22;5571;48.110;-1.706;2023-02-15T10:33:01;10.50;99.90
11035;DHT22;5571;48.110;-1.706;2023-02-15T10:57:46;12.00;99.90
11035;DHT22;5571;48.110;-1.706;2023-02-15T11:05:42;12.40;99.90
11035;DHT22;5571;48.110;-1.706;2023-02-15T11:08:11;12.60;99.90
11035;DHT22;5571;48.110;-1.706;2023-02-15T11:10:54;12.90;99.90
11035;DHT22;5571;48.110;-1.706;2023-02-15T11:13:25;13.20;99.90
11035;DHT22;5571;48.110;-1.706;2023-02-15T11:15:59;13.40;99.90
11035;DHT22;5571;48.110;-1.706;2023-02-15T11:18:32;13.50;99.90
11035;DHT22;5571;48.110;-1.706;2023-02-15T11:21:32;13.60;99.90
11035;DHT22;5571;48.110;-1.706;2023-02-15T11:24:10;13.50;99.90
11035;DHT22;5571;48.110;-1.706;2023-02-15T11:26:48;13.30;99.90
11035;DHT22;5571;48.110;-1.706;2023-02-15T11:31:54;13.80;99.90
11035;DHT22;5571;48.110;-1.706;2023-02-15T11:34:45;13.90;99.90
11035;DHT22;5571;48.110;-1.706;2023-02-15T11:37:18;14.10;99.90
11035;DHT22;5571;48.110;-1.706;2023-02-15T11:39:45;14.20;99.90
11035;DHT22;5571;48.110;-1.706;2023-02-15T11:42:19;14.60;99.90
11035;DHT22;5571;48.110;-1.706;2023-02-15T11:47:15;13.90;99.90
11035;DHT22;5571;48.110;-1.706;2023-02-15T11:49:41;14.00;99.90
11035;DHT22;5571;48.110;-1.706;2023-02-15T11:52:12;14.10;99.90
11035;DHT22;5571;48.110;-1.706;2023-02-15T11:54:48;14.50;99.90
11035;DHT22;5571;48.110;-1.706;2023-02-15T11:57:37;14.90;99.90
11035;DHT22;5571;48.110;-1.706;2023-02-15T12:02:53;15.30;99.90
11035;DHT22;5571;48.110;-1.706;2023-02-15T12:05:21;14.90;99.90
11035;DHT22;5571;48.110;-1.706;2023-02-15T12:08:20;14.90;99.90
11035;DHT22;5571;48.110;-1.706;2023-02-15T12:11:03;15.30;99.90
11035;DHT22;5571;48.110;-1.706;2023-02-15T12:13:32;15.70;99.90
11035;DHT22;5571;48.110;-1.706;2023-02-15T12:16:04;15.60;99.90
11035;DHT22;5571;48.110;-1.706;2023-02-15T12:18:43;15.50;99.90
11035;DHT22;5571;48.110;-1.706;2023-02-15T12:21:33;15.50;99.90
11035;DHT22;5571;48.110;-1.706;2023-02-15T12:26:38;15.60;99.90
11035;DHT22;5571;48.110;-1.706;2023-02-15T12:29:23;15.70;99.90
11035;DHT22;5571;48.110;-1.706;2023-02-15T12:31:51;15.90;99.90
11035;DHT22;5571;48.110;-1.706;2023-02-15T12:34:26;15.90;99.90
11035;DHT22;5571;48.110;-1.706;2023-02-15T12:36:55;16.10;99.90
11035;DHT22;5571;48.110;-1.706;2023-02-15T12:39:27;16.30;99.90
11035;DHT22;5571;48.110;-1.706;2023-02-15T12:41:59;16.10;99.90
11035;DHT22;5571;48.110;-1.706;2023-02-15T12:44:27;16.00;99.90
11035;DHT22;5571;48.110;-1.706;2023-02-15T12:47:05;15.80;99.90
11035;DHT22;5571;48.110;-1.706;2023-02-15T12:49:32;16.00;99.90
11035;DHT22;5571;48.110;-1.706;2023-02-15T12:52:01;16.00;99.90
11035;DHT22;5571;48.110;-1.706;2023-02-15T12:57:24;15.60;99.90
11035;DHT22;5571;48.110;-1.706;2023-02-15T13:00:04;15.40;99.90
11035;DHT22;5571;48.110;-1.706;2023-02-15T13:02:34;15.60;99.90
11035;DHT22;5571;48.110;-1.706;2023-02-15T13:05:16;15.70;99.90
11035;DHT22;5571;48.110;-1.706;2023-02-15T13:07:53;16.00;99.90
11035;DHT22;5571;48.110;-1.706;2023-02-15T13:10:27;15.70;99.90
11035;DHT22;5571;48.110;-1.706;2023-02-15T13:12:55;15.90;99.90
11035;DHT22;5571;48.110;-1.706;2023-02-15T13:15:40;15.90;99.90
11035;DHT22;5571;48.110;-1.706;2023-02-15T13:18:15;16.00;99.90
11035;DHT22;5571;48.110;-1.706;2023-02-15T13:20:41;15.80;99.90
11035;DHT22;5571;48.110;-1.706;2023-02-15T13:25:47;15.60;99.90
11035;DHT22;5571;48.110;-1.706;2023-02-15T13:28:16;15.70;99.90
11035;DHT22;5571;48.110;-1.706;2023-02-15T13:30:46;15.70;99.90
11035;DHT22;5571;48.110;-1.706;2023-02-15T13:33:34;16.10;99.90
11035;DHT22;5571;48.110;-1.706;2023-02-15T13:38:52;16.40;99.90
11035;DHT22;5571;48.110;-1.706;2023-02-15T13:52:24;17.10;99.90
11035;DHT22;5571;48.110;-1.706;2023-02-15T13:58:04;17.20;99.90
11035;DHT22;5571;48.110;-1.706;2023-02-15T14:11:52;17.30;99.90
11035;DHT22;5571;48.110;-1.706;2023-02-15T14:17:18;17.70;99.90
11035;DHT22;5571;48.110;-1.706;2023-02-15T14:19:54;17.80;99.90
11035;DHT22;5571;48.110;-1.706;2023-02-15T14:22:35;17.40;99.90
11035;DHT22;5571;48.110;-1.706;2023-02-15T14:25:18;17.10;99.90
11035;DHT22;5571;48.110;-1.706;2023-02-15T14:30:21;16.80;99.90
11035;DHT22;5571;48.110;-1.706;2023-02-15T14:32:52;16.70;99.90
11035;DHT22;5571;48.110;-1.706;2023-02-15T14:35:21;16.50;99.90
11035;DHT22;5571;48.110;-1.706;2023-02-15T14:38:23;16.50;99.90
11035;DHT22;5571;48.110;-1.706;2023-02-15T14:40:57;16.90;99.90
11035;DHT22;5571;48.110;-1.706;2023-02-15T14:49:32;17.30;99.90
11035;DHT22;5571;48.110;-1.706;2023-02-15T14:52:10;17.20;99.90
11035;DHT22;5571;48.110;-1.706;2023-02-15T14:59:50;17.10;99.90
11035;DHT22;5571;48.110;-1.706;2023-02-15T15:02:39;17.20;99.90
11035;DHT22;5571;48.110;-1.706;2023-02-15T15:05:24;17.00;99.90
11035;DHT22;5571;48.110;-1.706;2023-02-15T15:07:57;17.00;99.90
11035;DHT22;5571;48.110;-1.706;2023-02-15T15:15:57;16.90;99.90
11035;DHT22;5571;48.110;-1.706;2023-02-15T15:21:09;17.40;99.90
11035;DHT22;5571;48.110;-1.706;2023-02-15T15:23:41;17.30;99.90
11035;DHT22;5571;48.110;-1.706;2023-02-15T15:26:27;16.90;99.90
11035;DHT22;5571;48.110;-1.706;2023-02-15T15:28:58;17.10;99.90
11035;DHT22;5571;48.110;-1.706;2023-02-15T15:31:37;17.10;99.90
11035;DHT22;5571;48.110;-1.706;2023-02-15T15:34:43;17.20;99.90
11035;DHT22;5571;48.110;-1.706;2023-02-15T15:37:46;16.80;99.90
11035;DHT22;5571;48.110;-1.706;2023-02-15T15:41:03;17.20;99.90
11035;DHT22;5571;48.110;-1.706;2023-02-15T15:46:04;17.00;99.90
11035;DHT22;5571;48.110;-1.706;2023-02-15T15:48:37;17.10;99.90
11035;DHT22;5571;48.110;-1.706;2023-02-15T15:51:31;17.10;99.90
11035;DHT22;5571;48.110;-1.706;2023-02-15T15:53:57;17.50;99.90
11035;DHT22;5571;48.110;-1.706;2023-02-15T15:56:28;17.40;99.90
11035;DHT22;5571;48.110;-1.706;2023-02-15T15:58:59;17.50;99.90
11035;DHT22;5571;48.110;-1.706;2023-02-15T16:01:31;17.60;99.90
11035;DHT22;5571;48.110;-1.706;2023-02-15T16:04:00;17.30;99.90
11035;DHT22;5571;48.110;-1.706;2023-02-15T16:06:34;17.10;99.90
11035;DHT22;5571;48.110;-1.706;2023-02-15T16:11:36;16.20;99.90
11035;DHT22;5571;48.110;-1.706;2023-02-15T16:14:16;15.80;99.90
11035;DHT22;5571;48.110;-1.706;2023-02-15T16:16:48;15.60;99.90
11035;DHT22;5571;48.110;-1.706;2023-02-15T16:19:23;15.30;99.90
11035;DHT22;5571;48.110;-1.706;2023-02-15T16:21:50;15.20;99.90
11035;DHT22;5571;48.110;-1.706;2023-02-15T16:27:37;14.90;99.90
11035;DHT22;5571;48.110;-1.706;2023-02-15T16:30:32;14.80;99.90
11035;DHT22;5571;48.110;-1.706;2023-02-15T16:33:12;14.70;99.90
11035;DHT22;5571;48.110;-1.706;2023-02-15T16:35:54;14.70;99.90
11035;DHT22;5571;48.110;-1.706;2023-02-15T16:41:13;14.50;99.90
11035;DHT22;5571;48.110;-1.706;2023-02-15T16:43:42;14.50;99.90
11035;DHT22;5571;48.110;-1.706;2023-02-15T16:46:19;14.50;99.90
11035;DHT22;5571;48.110;-1.706;2023-02-15T16:48:48;14.40;99.90
11035;DHT22;5571;48.110;-1.706;2023-02-15T16:51:25;14.40;99.90
11035;DHT22;5571;48.110;-1.706;2023-02-15T16:53:52;14.30;99.90
11035;DHT22;5571;48.110;-1.706;2023-02-15T16:56:30;14.30;99.90
11035;DHT22;5571;48.110;-1.706;2023-02-15T16:58:57;14.20;99.90
11035;DHT22;5571;48.110;-1.706;2023-02-15T17:01:26;14.20;99.90
11035;DHT22;5571;48.110;-1.706;2023-02-15T17:07:17;14.10;99.90
11035;DHT22;5571;48.110;-1.706;2023-02-15T17:09:55;14.00;99.90
11035;DHT22;5571;48.110;-1.706;2023-02-15T17:12:44;14.00;99.90
11035;DHT22;5571;48.110;-1.706;2023-02-15T17:15:33;13.90;99.90
11035;DHT22;5571;48.110;-1.706;2023-02-15T17:18:09;13.80;99.90
11035;DHT22;5571;48.110;-1.706;2023-02-15T17:20:38;13.70;99.90
11035;DHT22;5571;48.110;-1.706;2023-02-15T17:23:30;13.60;99.90
11035;DHT22;5571;48.110;-1.706;2023-02-15T17:25:57;13.60;99.90
11035;DHT22;5571;48.110;-1.706;2023-02-15T17:28:26;13.50;99.90
11035;DHT22;5571;48.110;-1.706;2023-02-15T17:30:54;13.50;99.90
11035;DHT22;5571;48.110;-1.706;2023-02-15T17:36:11;13.40;99.90
11035;DHT22;5571;48.110;-1.706;2023-02-15T17:38:42;13.40;99.90
11035;DHT22;5571;48.110;-1.706;2023-02-15T17:41:25;13.40;99.90
11035;DHT22;5571;48.110;-1.706;2023-02-15T17:43:50;13.30;99.90
11035;DHT22;5571;48.110;-1.706;2023-02-15T17:46:16;13.20;99.90
11035;DHT22;5571;48.110;-1.706;2023-02-15T17:48:48;13.10;99.90
11035;DHT22;5571;48.110;-1.706;2023-02-15T17:51:15;13.10;99.90
11035;DHT22;5571;48.110;-1.706;2023-02-15T17:53:42;13.00;99.90
11035;DHT22;5571;48.110;-1.706;2023-02-15T17:56:27;13.00;99.90
11035;DHT22;5571;48.110;-1.706;2023-02-15T17:58:53;12.90;99.90
11035;DHT22;5571;48.110;-1.706;2023-02-15T18:01:20;12.90;99.90
11035;DHT22;5571;48.110;-1.706;2023-02-15T18:04:08;12.90;99.90
11035;DHT22;5571;48.110;-1.706;2023-02-15T18:06:55;12.80;99.90
11035;DHT22;5571;48.110;-1.706;2023-02-15T18:09:39;12.70;99.90
11035;DHT22;5571;48.110;-1.706;2023-02-15T18:12:29;12.70;99.90
11035;DHT22;5571;48.110;-1.706;2023-02-15T18:14:56;12.60;99.90
11035;DHT22;5571;48.110;-1.706;2023-02-15T18:17:53;12.60;99.90
11035;DHT22;5571;48.110;-1.706;2023-02-15T18:20:25;12.60;99.90
11035;DHT22;5571;48.110;-1.706;2023-02-15T18:22:53;12.60;99.90
11035;DHT22;5571;48.110;-1.706;2023-02-15T18:25:21;12.50;99.90
11035;DHT22;5571;48.110;-1.706;2023-02-15T18:27:48;12.50;99.90
11035;DHT22;5571;48.110;-1.706;2023-02-15T18:30:19;12.50;99.90
11035;DHT22;5571;48.110;-1.706;2023-02-15T18:32:46;12.50;99.90
11035;DHT22;5571;48.110;-1.706;2023-02-15T18:35:18;12.40;99.90
11035;DHT22;5571;48.110;-1.706;2023-02-15T18:37:44;12.50;99.90
11035;DHT22;5571;48.110;-1.706;2023-02-15T18:40:15;12.40;99.90
11035;DHT22;5571;48.110;-1.706;2023-02-15T18:42:41;12.40;99.90
11035;DHT22;5571;48.110;-1.706;2023-02-15T18:45:17;12.30;99.90
11035;DHT22;5571;48.110;-1.706;2023-02-15T18:47:45;12.30;99.90
11035;DHT22;5571;48.110;-1.706;2023-02-15T18:50:12;12.20;99.90
11035;DHT22;5571;48.110;-1.706;2023-02-15T18:52:39;12.20;99.90
11035;DHT22;5571;48.110;-1.706;2023-02-15T18:57:40;12.10;99.90
11035;DHT22;5571;48.110;-1.706;2023-02-15T19:00:14;12.20;99.90
11035;DHT22;5571;48.110;-1.706;2023-02-15T19:02:41;12.10;99.90
11035;DHT22;5571;48.110;-1.706;2023-02-15T19:05:07;12.10;99.90
11035;DHT22;5571;48.110;-1.706;2023-02-15T19:07:34;12.00;99.90
11035;DHT22;5571;48.110;-1.706;2023-02-15T19:10:01;12.00;99.90
11035;DHT22;5571;48.110;-1.706;2023-02-15T19:12:30;12.00;99.90
11035;DHT22;5571;48.110;-1.706;2023-02-15T19:14:56;11.90;99.90
11035;DHT22;5571;48.110;-1.706;2023-02-15T19:17:22;11.90;99.90
11035;DHT22;5571;48.110;-1.706;2023-02-15T19:19:49;11.90;99.90
11035;DHT22;5571;48.110;-1.706;2023-02-15T19:22:33;11.90;99.90